createdAt,value
2018-12-16T00:01:11.603Z,13.33
2018-12-16T00:03:39.733Z,13.07
2018-12-16T00:06:07.878Z,13.13
2018-12-16T00:08:35.989Z,13.77
2018-12-16T00:11:04.122Z,13.50
2018-12-16T00:13:32.226Z,12.50
2018-12-16T00:16:00.375Z,12.93
2018-12-16T00:18:28.471Z,12.70
2018-12-16T00:20:56.584Z,13.77
2018-12-16T00:23:24.804Z,13.53
2018-12-16T00:25:52.938Z,13.90
2018-12-16T00:28:21.097Z,15.67
2018-12-16T00:30:49.234Z,12.13
2018-12-16T00:33:17.369Z,13.93
2018-12-16T00:35:45.479Z,14.27
2018-12-16T00:38:13.604Z,14.07
2018-12-16T00:40:41.723Z,12.97
2018-12-16T00:43:09.880Z,15.00
2018-12-16T00:45:38.112Z,13.80
2018-12-16T00:48:06.215Z,14.23
2018-12-16T00:50:34.324Z,15.83
2018-12-16T00:53:02.484Z,15.40
2018-12-16T00:55:30.607Z,15.20
2018-12-16T00:57:58.707Z,14.57
2018-12-16T01:00:26.833Z,13.97
2018-12-16T01:02:54.956Z,14.50
2018-12-16T01:05:23.099Z,15.17
2018-12-16T01:07:51.256Z,15.83
2018-12-16T01:10:19.389Z,14.60
2018-12-16T01:12:47.502Z,16.13
2018-12-16T01:15:15.634Z,15.27
2018-12-16T01:17:43.744Z,16.20
2018-12-16T01:20:11.925Z,15.20
2018-12-16T01:22:43.421Z,15.10
2018-12-16T01:25:10.262Z,15.07
2018-12-16T01:27:38.420Z,15.80
2018-12-16T01:30:06.757Z,15.03
2018-12-16T01:32:34.862Z,14.57
2018-12-16T01:35:03.244Z,16.63
2018-12-16T01:37:31.392Z,15.20
2018-12-16T01:39:59.551Z,15.70
2018-12-16T01:42:27.700Z,14.83
2018-12-16T01:44:55.830Z,15.80
2018-12-16T01:47:23.965Z,16.40
2018-12-16T01:49:52.072Z,16.97
2018-12-16T01:52:20.296Z,18.20
2018-12-16T01:54:48.426Z,18.47
2018-12-16T01:57:16.542Z,16.87
2018-12-16T01:59:44.696Z,17.57
2018-12-16T02:02:12.832Z,16.47
2018-12-16T02:04:40.988Z,16.47
2018-12-16T02:07:09.094Z,17.53
2018-12-16T02:09:37.257Z,15.97
2018-12-16T02:12:05.552Z,15.87
2018-12-16T02:14:33.731Z,17.20
2018-12-16T02:17:01.849Z,16.70
2018-12-16T02:19:29.980Z,16.63
2018-12-16T02:21:58.224Z,17.67
2018-12-16T02:24:26.323Z,16.80
2018-12-16T02:26:54.467Z,16.70
2018-12-16T02:29:22.597Z,17.20
2018-12-16T02:31:50.803Z,17.60
2018-12-16T02:34:18.904Z,16.93
2018-12-16T02:36:47.013Z,17.57
2018-12-16T02:39:15.238Z,16.60
2018-12-16T02:41:43.373Z,16.17
2018-12-16T02:44:11.651Z,16.93
2018-12-16T02:46:39.762Z,16.13
2018-12-16T02:49:07.880Z,16.73
2018-12-16T02:51:36.062Z,15.43
2018-12-16T02:54:04.268Z,16.77
2018-12-16T02:56:32.407Z,16.17
2018-12-16T02:59:00.521Z,14.57
2018-12-16T03:01:28.656Z,16.57
2018-12-16T03:03:56.788Z,15.50
2018-12-16T03:06:24.944Z,16.27
2018-12-16T03:08:53.066Z,16.20
2018-12-16T03:11:21.213Z,15.53
2018-12-16T03:13:49.375Z,15.47
2018-12-16T03:16:17.485Z,16.10
2018-12-16T03:18:45.646Z,15.83
2018-12-16T03:21:13.759Z,16.03
2018-12-16T03:23:41.916Z,15.20
2018-12-16T03:26:10.021Z,15.27
2018-12-16T03:28:38.273Z,15.93
2018-12-16T03:31:06.393Z,16.33
2018-12-16T03:33:34.505Z,16.50
2018-12-16T03:36:02.684Z,17.17
2018-12-16T03:38:30.920Z,15.70
2018-12-16T03:40:59.044Z,16.93
2018-12-16T03:43:27.145Z,15.77
2018-12-16T03:45:55.402Z,16.07
2018-12-16T03:48:23.562Z,15.73
2018-12-16T03:50:51.692Z,17.03
2018-12-16T03:53:20.451Z,17.63
2018-12-16T03:55:48.701Z,15.30
2018-12-16T03:58:16.821Z,16.13
2018-12-16T04:00:44.992Z,15.43
2018-12-16T04:03:13.158Z,14.33
2018-12-16T04:05:41.284Z,16.90
2018-12-16T04:08:09.425Z,16.57
2018-12-16T04:10:37.562Z,16.83
2018-12-16T04:13:05.702Z,16.43
2018-12-16T04:15:33.821Z,16.30
2018-12-16T04:18:01.966Z,14.40
2018-12-16T04:20:30.099Z,14.83
2018-12-16T04:22:58.379Z,17.10
2018-12-16T04:25:26.500Z,17.43
2018-12-16T04:27:54.623Z,14.93
2018-12-16T04:30:22.805Z,16.20
2018-12-16T04:32:51.263Z,15.70
2018-12-16T04:35:19.370Z,15.23
2018-12-16T04:37:47.482Z,16.07
2018-12-16T04:40:15.646Z,15.27
2018-12-16T04:42:43.776Z,14.77
2018-12-16T04:45:11.918Z,15.30
2018-12-16T04:47:40.042Z,13.03
2018-12-16T04:50:08.427Z,13.60
2018-12-16T04:52:36.538Z,13.33
2018-12-16T04:55:04.960Z,13.73
2018-12-16T04:57:33.081Z,12.33
2018-12-16T05:00:01.258Z,14.47
2018-12-16T05:02:29.375Z,12.17
2018-12-16T05:04:57.514Z,13.40
2018-12-16T05:07:25.659Z,12.50
2018-12-16T05:09:53.802Z,12.57
2018-12-16T05:12:21.950Z,12.77
2018-12-16T05:14:50.097Z,11.63
2018-12-16T05:17:18.282Z,12.37
2018-12-16T05:19:46.417Z,11.97
2018-12-16T05:22:14.561Z,12.70
2018-12-16T05:24:42.733Z,11.90
2018-12-16T05:27:10.853Z,11.83
2018-12-16T05:29:38.994Z,11.93
2018-12-16T05:32:07.131Z,12.83
2018-12-16T05:34:35.269Z,11.37
2018-12-16T05:37:03.415Z,13.10
2018-12-16T05:39:31.545Z,11.27
2018-12-16T05:41:59.693Z,11.97
2018-12-16T05:44:27.809Z,11.70
2018-12-16T05:46:55.954Z,11.90
2018-12-16T05:49:24.093Z,11.87
2018-12-16T05:51:52.261Z,11.90
2018-12-16T05:54:20.375Z,12.10
2018-12-16T05:56:48.516Z,11.80
2018-12-16T05:59:16.677Z,11.43
2018-12-16T06:01:44.807Z,11.70
2018-12-16T06:04:12.945Z,11.23
2018-12-16T06:06:41.141Z,11.20
2018-12-16T06:09:09.288Z,12.17
2018-12-16T06:11:37.442Z,11.77
2018-12-16T06:14:05.613Z,10.60
2018-12-16T06:16:33.720Z,10.67
2018-12-16T06:19:01.838Z,11.03
2018-12-16T06:21:30.358Z,9.93
2018-12-16T06:23:58.499Z,11.13
2018-12-16T06:26:26.617Z,9.73
2018-12-16T06:28:54.772Z,11.03
2018-12-16T06:31:23.282Z,10.87
2018-12-16T06:33:51.392Z,10.47
2018-12-16T06:36:19.509Z,10.37
2018-12-16T06:38:47.642Z,10.37
2018-12-16T06:41:15.849Z,11.13
2018-12-16T06:43:43.990Z,10.73
2018-12-16T06:46:12.138Z,9.50
2018-12-16T06:48:40.297Z,10.87
2018-12-16T06:51:08.437Z,10.37
2018-12-16T06:53:36.586Z,10.13
2018-12-16T06:56:06.781Z,10.27
2018-12-16T06:58:34.921Z,11.40
2018-12-16T07:01:03.034Z,10.67
2018-12-16T07:03:31.180Z,11.10
2018-12-16T07:05:59.354Z,11.30
2018-12-16T07:08:27.464Z,13.33
2018-12-16T07:10:55.911Z,11.43
2018-12-16T07:13:24.042Z,10.87
2018-12-16T07:15:52.202Z,10.83
2018-12-16T07:18:20.371Z,11.10
2018-12-16T07:20:48.525Z,11.20
2018-12-16T07:23:16.677Z,10.40
2018-12-16T07:25:44.804Z,11.73
2018-12-16T07:28:12.963Z,11.30
2018-12-16T07:30:41.111Z,11.60
2018-12-16T07:33:09.349Z,10.80
2018-12-16T07:35:37.601Z,10.90
2018-12-16T07:38:05.854Z,11.10
2018-12-16T07:40:34.026Z,11.07
2018-12-16T07:43:02.139Z,12.20
2018-12-16T07:45:30.284Z,12.13
2018-12-16T07:47:58.426Z,12.07
2018-12-16T07:50:26.588Z,11.23
2018-12-16T07:52:55.054Z,11.40
2018-12-16T07:55:23.250Z,10.37
2018-12-16T07:57:51.509Z,10.70
2018-12-16T08:00:19.742Z,10.93
2018-12-16T08:02:47.936Z,10.07
2018-12-16T08:05:16.085Z,11.27
2018-12-16T08:07:44.224Z,11.23
2018-12-16T08:10:12.353Z,11.07
2018-12-16T08:12:40.505Z,11.50
2018-12-16T08:15:08.793Z,10.93
2018-12-16T08:17:36.913Z,11.40
2018-12-16T08:20:06.479Z,11.27
2018-12-16T08:22:34.602Z,11.07
2018-12-16T08:25:02.717Z,10.07
2018-12-16T08:27:30.845Z,11.30
2018-12-16T08:29:58.957Z,11.50
2018-12-16T08:32:27.085Z,10.83
2018-12-16T08:34:55.193Z,11.93
2018-12-16T08:37:23.689Z,11.20
2018-12-16T08:39:51.826Z,10.87
2018-12-16T08:42:19.961Z,11.00
2018-12-16T08:44:48.202Z,11.50
2018-12-16T08:47:16.343Z,10.50
2018-12-16T08:49:44.577Z,11.07
2018-12-16T08:52:13.668Z,10.67
2018-12-16T08:54:41.836Z,11.03
2018-12-16T08:57:09.945Z,11.37
2018-12-16T08:59:38.082Z,11.73
2018-12-16T09:02:06.296Z,12.27
2018-12-16T09:04:34.457Z,11.27
2018-12-16T09:07:02.724Z,11.47
2018-12-16T09:09:31.331Z,12.63
2018-12-16T09:11:59.491Z,11.77
2018-12-16T09:14:27.626Z,12.47
2018-12-16T09:16:55.785Z,13.20
2018-12-16T09:19:23.926Z,12.70
2018-12-16T09:21:52.071Z,13.90
2018-12-16T09:24:20.211Z,12.97
2018-12-16T09:26:48.370Z,11.90
2018-12-16T09:29:16.486Z,11.83
2018-12-16T09:31:44.629Z,11.87
2018-12-16T09:34:12.877Z,12.10
2018-12-16T09:36:40.986Z,11.73
2018-12-16T09:39:09.103Z,11.73
2018-12-16T09:41:37.233Z,11.97
2018-12-16T09:44:05.343Z,11.80
2018-12-16T09:46:33.489Z,12.97
2018-12-16T09:49:01.596Z,14.13
2018-12-16T09:51:29.829Z,13.23
2018-12-16T09:53:57.984Z,12.50
2018-12-16T09:56:26.125Z,12.43
2018-12-16T09:58:54.261Z,12.97
2018-12-16T10:01:22.459Z,14.20
2018-12-16T10:03:50.584Z,12.70
2018-12-16T10:06:18.722Z,14.13
2018-12-16T10:08:46.887Z,14.00
2018-12-16T10:11:14.988Z,14.00
2018-12-16T10:13:43.125Z,14.73
2018-12-16T10:16:11.364Z,14.60
2018-12-16T10:18:40.708Z,13.57
2018-12-16T10:21:08.847Z,13.63
2018-12-16T10:23:37.126Z,14.43
2018-12-16T10:26:05.306Z,13.90
2018-12-16T10:28:33.423Z,14.10
2018-12-16T10:31:01.562Z,13.27
2018-12-16T10:33:30.702Z,13.40
2018-12-16T10:35:58.842Z,14.43
2018-12-16T10:38:26.954Z,14.27
2018-12-16T10:40:55.110Z,15.53
2018-12-16T10:43:23.240Z,14.57
2018-12-16T10:45:51.393Z,15.07
2018-12-16T10:48:19.561Z,15.27
2018-12-16T10:50:47.698Z,16.63
2018-12-16T10:53:15.837Z,15.17
2018-12-16T10:55:44.344Z,15.03
2018-12-16T10:58:12.458Z,15.93
2018-12-16T11:00:46.511Z,16.93
2018-12-16T11:03:14.626Z,15.80
2018-12-16T11:05:42.848Z,15.97
2018-12-16T11:08:11.028Z,15.97
2018-12-16T11:10:39.166Z,17.00
2018-12-16T11:13:07.955Z,16.27
2018-12-16T11:15:36.104Z,19.50
2018-12-16T11:18:04.436Z,18.43
2018-12-16T11:20:32.549Z,17.63
2018-12-16T11:23:00.655Z,18.00
2018-12-16T11:25:29.004Z,18.87
2018-12-16T11:27:57.435Z,18.93
2018-12-16T11:30:25.553Z,17.37
2018-12-16T11:32:53.665Z,25.67
2018-12-16T11:35:21.843Z,16.13
2018-12-16T11:37:49.965Z,17.97
2018-12-16T11:40:18.098Z,16.13
2018-12-16T11:42:46.205Z,17.20
2018-12-16T11:45:14.461Z,17.27
2018-12-16T11:47:42.623Z,18.17
2018-12-16T11:50:10.739Z,17.53
2018-12-16T11:52:38.884Z,18.50
2018-12-16T11:55:12.690Z,15.77
2018-12-16T11:57:37.353Z,16.93
2018-12-16T12:00:07.272Z,16.70
2018-12-16T12:02:35.390Z,17.60
2018-12-16T12:05:05.051Z,16.33
2018-12-16T12:07:33.195Z,17.00
2018-12-16T12:10:01.342Z,17.07
2018-12-16T12:12:29.509Z,16.37
2018-12-16T12:14:57.735Z,17.67
2018-12-16T12:17:25.897Z,17.17
2018-12-16T12:19:54.034Z,17.03
2018-12-16T12:22:22.164Z,16.33
2018-12-16T12:24:50.302Z,17.37
2018-12-16T12:27:18.468Z,16.60
2018-12-16T12:29:46.601Z,18.17
2018-12-16T12:32:14.713Z,16.43
2018-12-16T12:34:42.854Z,17.17
2018-12-16T12:37:11.972Z,17.33
2018-12-16T12:42:14.718Z,16.87
2018-12-16T12:44:42.884Z,16.40
2018-12-16T12:47:11.002Z,17.10
2018-12-16T12:49:45.016Z,17.80
2018-12-16T12:52:09.321Z,16.97
2018-12-16T12:54:37.424Z,15.57
2018-12-16T12:57:05.548Z,17.30
2018-12-16T12:59:33.672Z,18.13
2018-12-16T13:02:01.830Z,18.37
2018-12-16T13:04:29.970Z,18.63
2018-12-16T13:06:58.105Z,17.43
2018-12-16T13:09:26.220Z,17.03
2018-12-16T13:11:54.357Z,17.57
2018-12-16T13:14:22.525Z,15.90
2018-12-16T13:16:50.673Z,17.63
2018-12-16T13:19:18.854Z,17.33
2018-12-16T13:21:46.970Z,17.80
2018-12-16T13:24:15.113Z,16.60
2018-12-16T13:26:43.269Z,17.30
2018-12-16T13:29:11.758Z,16.43
2018-12-16T13:31:39.898Z,17.67
2018-12-16T13:34:08.004Z,17.60
2018-12-16T13:36:36.143Z,17.60
2018-12-16T13:39:06.062Z,18.83
2018-12-16T13:41:34.206Z,16.97
2018-12-16T13:44:02.360Z,17.20
2018-12-16T13:46:30.484Z,17.83
2018-12-16T13:48:58.618Z,16.87
2018-12-16T13:51:26.758Z,18.13
2018-12-16T13:53:54.891Z,19.07
2018-12-16T13:56:22.997Z,18.20
2018-12-16T13:58:51.138Z,17.60
2018-12-16T14:01:19.308Z,18.37
2018-12-16T14:03:47.417Z,18.73
2018-12-16T14:06:15.630Z,17.57
2018-12-16T14:08:43.728Z,16.80
2018-12-16T14:11:11.872Z,18.80
2018-12-16T14:13:40.365Z,18.53
2018-12-16T14:16:08.653Z,17.97
2018-12-16T14:18:36.823Z,17.67
2018-12-16T14:21:05.076Z,16.77
2018-12-16T14:23:33.186Z,16.67
2018-12-16T14:26:01.580Z,18.50
2018-12-16T14:28:33.625Z,17.63
2018-12-16T14:31:02.037Z,17.63
2018-12-16T14:33:30.282Z,18.43
2018-12-16T14:35:58.494Z,18.17
2018-12-16T14:38:26.725Z,17.83
2018-12-16T14:40:55.867Z,18.67
2018-12-16T14:43:25.866Z,18.97
2018-12-16T14:45:54.201Z,16.97
2018-12-16T14:48:22.550Z,18.00
2018-12-16T14:50:51.846Z,18.50
2018-12-16T14:53:21.313Z,17.37
2018-12-16T14:55:55.173Z,18.50
2018-12-16T14:58:21.831Z,18.90
2018-12-16T15:00:51.234Z,17.57
2018-12-16T15:03:20.609Z,18.53
2018-12-16T15:05:50.055Z,18.57
2018-12-16T15:08:19.528Z,19.30
2018-12-16T15:10:48.878Z,17.93
2018-12-16T15:13:17.269Z,17.63
2018-12-16T15:15:45.612Z,18.97
2018-12-16T15:18:14.078Z,17.37
2018-12-16T15:20:44.228Z,18.87
2018-12-16T15:23:12.603Z,17.80
2018-12-16T15:25:41.792Z,18.77
2018-12-16T15:28:11.261Z,18.73
2018-12-16T15:30:41.322Z,18.63
2018-12-16T15:33:10.717Z,18.77
2018-12-16T15:35:40.113Z,19.63
2018-12-16T15:38:09.479Z,19.07
2018-12-16T15:40:39.220Z,17.23
2018-12-16T15:43:07.582Z,19.10
2018-12-16T15:45:35.949Z,19.80
2018-12-16T15:48:04.319Z,19.43
2018-12-16T15:50:32.674Z,17.93
2018-12-16T15:53:01.659Z,19.27
2018-12-16T15:55:30.062Z,19.77
2018-12-16T15:57:59.477Z,18.70
2018-12-16T16:00:28.821Z,18.87
2018-12-16T16:02:57.178Z,19.00
2018-12-16T16:05:25.545Z,19.10
2018-12-16T16:07:54.269Z,18.83
2018-12-16T16:10:23.134Z,21.60
2018-12-16T16:12:51.874Z,19.40
2018-12-16T16:15:21.350Z,20.80
2018-12-16T16:17:50.022Z,19.17
2018-12-16T16:20:19.491Z,19.80
2018-12-16T16:22:48.891Z,20.57
2018-12-16T16:25:17.256Z,20.33
2018-12-16T16:27:45.625Z,18.90
2018-12-16T16:30:14.082Z,19.00
2018-12-16T16:32:42.462Z,20.03
2018-12-16T16:35:11.705Z,19.10
2018-12-16T16:37:41.175Z,20.00
2018-12-16T16:40:10.014Z,20.17
2018-12-16T16:42:38.910Z,20.00
2018-12-16T16:45:07.366Z,19.97
2018-12-16T16:47:35.718Z,20.37
2018-12-16T16:50:05.465Z,21.43
2018-12-16T16:52:33.838Z,19.23
2018-12-16T16:55:02.302Z,18.93
2018-12-16T16:57:31.682Z,18.73
2018-12-16T17:00:01.255Z,19.13
2018-12-16T17:02:31.551Z,20.13
2018-12-16T17:05:01.160Z,20.80
2018-12-16T17:07:30.005Z,20.07
2018-12-16T17:09:59.478Z,21.13
2018-12-16T17:12:29.742Z,21.50
2018-12-16T17:14:58.810Z,19.00
2018-12-16T17:17:27.262Z,21.50
2018-12-16T17:19:55.630Z,19.50
2018-12-16T17:22:23.969Z,20.10
2018-12-16T17:24:52.340Z,21.30
2018-12-16T17:27:21.781Z,20.53
2018-12-16T17:29:51.141Z,20.13
2018-12-16T17:32:20.181Z,21.03
2018-12-16T17:34:49.277Z,19.80
2018-12-16T17:37:17.673Z,20.10
2018-12-16T17:39:46.042Z,21.00
2018-12-16T17:42:14.433Z,21.13
2018-12-16T17:44:42.793Z,19.70
2018-12-16T17:47:11.768Z,19.67
2018-12-16T17:49:41.226Z,18.77
2018-12-16T17:52:10.704Z,22.70
2018-12-16T17:54:40.080Z,20.10
2018-12-16T17:57:09.453Z,21.53
2018-12-16T17:59:38.797Z,21.30
2018-12-16T18:02:07.162Z,22.20
2018-12-16T18:04:35.535Z,21.53
2018-12-16T18:07:03.882Z,20.77
2018-12-16T18:09:32.250Z,20.40
2018-12-16T18:12:01.728Z,21.87
2018-12-16T18:14:30.799Z,21.23
2018-12-16T18:17:01.052Z,22.77
2018-12-16T18:19:30.721Z,20.13
2018-12-16T18:22:01.412Z,20.50
2018-12-16T18:24:29.999Z,22.80
2018-12-16T18:26:58.893Z,20.63
2018-12-16T18:29:27.267Z,21.13
2018-12-16T18:31:55.639Z,20.20
2018-12-16T18:34:23.987Z,21.23
2018-12-16T18:36:52.355Z,20.10
2018-12-16T18:39:21.132Z,21.10
2018-12-16T18:41:50.403Z,21.17
2018-12-16T18:44:19.445Z,21.37
2018-12-16T18:46:48.926Z,20.73
2018-12-16T18:49:17.303Z,21.67
2018-12-16T18:51:45.745Z,21.30
2018-12-16T18:54:14.137Z,22.80
2018-12-16T18:56:42.533Z,22.50
2018-12-16T18:59:11.706Z,22.00
2018-12-16T19:01:41.168Z,22.90
2018-12-16T19:04:11.749Z,21.47
2018-12-16T19:06:41.433Z,22.00
2018-12-16T19:09:10.942Z,22.73
2018-12-16T19:11:40.202Z,22.77
2018-12-16T19:14:09.710Z,22.97
2018-12-16T19:16:39.274Z,23.50
2018-12-16T19:19:07.943Z,24.40
2018-12-16T19:21:37.192Z,25.57
2018-12-16T19:24:06.956Z,24.93
2018-12-16T19:26:35.327Z,24.63
2018-12-16T19:29:03.687Z,23.57
2018-12-16T19:31:32.294Z,24.37
2018-12-16T19:34:03.087Z,24.03
2018-12-16T19:36:32.377Z,25.20
2018-12-16T19:39:02.306Z,25.63
2018-12-16T19:41:31.647Z,24.27
2018-12-16T19:44:00.611Z,22.80
2018-12-16T19:46:30.085Z,27.00
2018-12-16T19:48:59.444Z,27.27
2018-12-16T19:51:29.749Z,24.83
2018-12-16T19:53:58.980Z,26.43
2018-12-16T19:56:27.442Z,26.33
2018-12-16T19:58:56.001Z,28.03
2018-12-16T20:01:24.355Z,26.43
2018-12-16T20:03:58.331Z,25.80
2018-12-16T20:06:32.346Z,25.50
2018-12-16T20:09:02.599Z,25.63
2018-12-16T20:11:31.865Z,26.37
2018-12-16T20:14:02.441Z,25.77
2018-12-16T20:16:31.779Z,26.23
2018-12-16T20:19:01.122Z,25.63
2018-12-16T20:21:30.680Z,26.97
2018-12-16T20:24:00.051Z,25.93
2018-12-16T20:26:29.544Z,25.53
2018-12-16T20:28:58.885Z,25.43
2018-12-16T20:31:27.265Z,26.03
2018-12-16T20:33:55.614Z,27.30
2018-12-16T20:36:24.021Z,26.20
2018-12-16T20:38:52.373Z,26.90
2018-12-16T20:41:21.618Z,25.73
2018-12-16T20:43:50.615Z,25.17
2018-12-16T20:46:19.498Z,24.73
2018-12-16T20:48:49.222Z,26.80
2018-12-16T20:51:18.366Z,24.87
2018-12-16T20:53:46.710Z,24.83
2018-12-16T20:56:15.095Z,24.37
2018-12-16T20:58:43.487Z,26.10
2018-12-16T21:01:12.482Z,24.90
2018-12-16T21:03:41.704Z,25.43
2018-12-16T21:06:10.545Z,25.83
2018-12-16T21:08:40.153Z,24.67
2018-12-16T21:11:15.198Z,24.87
2018-12-16T21:13:49.425Z,24.23
2018-12-16T21:16:24.529Z,23.77
2018-12-16T21:18:53.098Z,24.23
2018-12-16T21:21:22.370Z,23.33
2018-12-16T21:23:51.729Z,24.57
2018-12-16T21:26:21.219Z,25.43
2018-12-16T21:28:50.061Z,25.67
2018-12-16T21:31:18.821Z,24.87
2018-12-16T21:33:47.202Z,26.97
2018-12-16T21:36:15.682Z,25.97
2018-12-16T21:38:44.021Z,25.43
2018-12-16T21:41:12.362Z,25.23
2018-12-16T21:43:41.759Z,25.40
2018-12-16T21:46:11.235Z,26.33
2018-12-16T21:48:40.125Z,24.77
2018-12-16T21:51:08.982Z,29.00
2018-12-16T21:53:37.327Z,26.40
2018-12-16T21:56:06.169Z,27.87
2018-12-16T21:58:34.510Z,28.10
2018-12-16T22:01:02.886Z,27.57
2018-12-16T22:03:33.334Z,30.77
2018-12-16T22:06:02.922Z,28.90
2018-12-16T22:08:32.371Z,32.10
2018-12-16T22:11:01.790Z,31.73
2018-12-16T22:13:31.174Z,29.77
2018-12-16T22:16:00.673Z,31.13
2018-12-16T22:18:30.079Z,31.30
2018-12-16T22:20:59.537Z,33.57
2018-12-16T22:23:29.218Z,30.33
2018-12-16T22:25:57.633Z,32.23
2018-12-16T22:28:25.983Z,33.27
2018-12-16T22:30:54.349Z,33.30
2018-12-16T22:33:22.818Z,32.00
2018-12-16T22:35:52.273Z,34.33
2018-12-16T22:38:21.725Z,34.63
2018-12-16T22:40:51.314Z,35.20
2018-12-16T22:43:20.202Z,36.10
2018-12-16T22:45:49.488Z,34.27
2018-12-16T22:48:18.858Z,35.97
2018-12-16T22:50:47.326Z,34.37
2018-12-16T22:53:15.670Z,35.10
2018-12-16T22:55:44.005Z,34.33
2018-12-16T22:58:12.370Z,35.10
2018-12-16T23:00:47.623Z,34.97
2018-12-16T23:03:16.010Z,33.73
2018-12-16T23:05:44.392Z,33.30
2018-12-16T23:10:47.413Z,32.63
2018-12-16T23:13:15.789Z,33.77
2018-12-16T23:15:44.158Z,34.83
2018-12-16T23:18:12.852Z,36.13
2018-12-16T23:20:42.192Z,34.80
2018-12-16T23:23:11.153Z,34.10
2018-12-16T23:25:40.094Z,34.00
2018-12-16T23:28:09.461Z,34.03
2018-12-16T23:30:39.018Z,33.80
2018-12-16T23:33:07.366Z,33.87
2018-12-16T23:35:35.729Z,32.80
2018-12-16T23:38:04.089Z,35.33
2018-12-16T23:40:32.426Z,35.57
2018-12-16T23:43:01.685Z,34.43
2018-12-16T23:45:30.632Z,33.43
2018-12-16T23:48:00.198Z,35.03
2018-12-16T23:50:29.439Z,34.83
2018-12-16T23:52:58.881Z,34.20
2018-12-16T23:55:27.278Z,33.73
2018-12-16T23:58:00.990Z,34.93
